createdAt,value
2022-08-24T00:01:38.140Z,17.06
2022-08-24T00:04:08.496Z,17.01
2022-08-24T00:06:40.864Z,16.94
2022-08-24T00:09:10.906Z,16.83
2022-08-24T00:11:46.267Z,16.69
2022-08-24T00:14:15.338Z,16.57
2022-08-24T00:16:44.178Z,16.53
2022-08-24T00:19:13.209Z,16.46
2022-08-24T00:21:42.093Z,16.47
2022-08-24T00:24:11.912Z,16.46
2022-08-24T00:26:41.726Z,16.50
2022-08-24T00:29:12.073Z,16.42
2022-08-24T00:31:41.661Z,16.40
2022-08-24T00:34:10.829Z,16.44
2022-08-24T00:36:39.337Z,16.35
2022-08-24T00:39:09.830Z,16.30
2022-08-24T00:41:45.654Z,16.27
2022-08-24T00:44:17.298Z,16.23
2022-08-24T00:46:50.502Z,16.19
2022-08-24T00:49:36.006Z,16.26
2022-08-24T00:52:11.381Z,16.21
2022-08-24T00:54:46.504Z,16.03
2022-08-24T00:57:19.929Z,15.97
2022-08-24T00:59:57.374Z,15.98
2022-08-24T01:02:28.687Z,15.94
2022-08-24T01:05:00.330Z,15.92
2022-08-24T01:07:31.668Z,15.88
2022-08-24T01:10:03.979Z,15.90
2022-08-24T01:12:34.893Z,15.84
2022-08-24T01:15:09.542Z,15.76
2022-08-24T01:17:58.963Z,15.84
2022-08-24T01:20:27.745Z,15.77
2022-08-24T01:23:07.212Z,15.88
2022-08-24T01:25:44.990Z,15.79
2022-08-24T01:28:23.401Z,15.69
2022-08-24T01:30:55.939Z,15.67
2022-08-24T01:33:27.027Z,15.68
2022-08-24T01:36:01.895Z,15.62
2022-08-24T01:38:30.808Z,15.65
2022-08-24T01:41:04.641Z,15.65
2022-08-24T01:43:35.170Z,15.62
2022-08-24T01:46:08.351Z,15.64
2022-08-24T01:48:36.940Z,15.40
2022-08-24T01:51:06.055Z,14.96
2022-08-24T01:53:34.667Z,14.81
2022-08-24T01:56:07.558Z,14.79
2022-08-24T01:58:35.936Z,14.69
2022-08-24T02:01:04.835Z,14.63
2022-08-24T02:03:42.191Z,14.64
2022-08-24T02:06:20.219Z,14.47
2022-08-24T02:08:54.898Z,14.45
2022-08-24T02:11:25.034Z,14.50
2022-08-24T02:13:53.864Z,14.61
2022-08-24T02:16:24.690Z,14.58
2022-08-24T02:18:56.531Z,14.55
2022-08-24T02:21:27.290Z,14.58
2022-08-24T02:23:55.767Z,14.57
2022-08-24T02:26:30.384Z,14.60
2022-08-24T02:29:03.539Z,14.63
2022-08-24T02:31:37.319Z,14.68
2022-08-24T02:34:07.631Z,14.64
2022-08-24T02:36:36.791Z,14.69
2022-08-24T02:39:05.794Z,14.71
2022-08-24T02:41:36.231Z,14.65
2022-08-24T02:44:06.300Z,14.68
2022-08-24T02:46:34.894Z,14.59
2022-08-24T02:49:11.147Z,14.59
2022-08-24T02:51:44.657Z,14.51
2022-08-24T02:54:18.341Z,14.53
2022-08-24T02:56:49.549Z,14.62
2022-08-24T02:59:18.689Z,14.65
2022-08-24T03:01:50.068Z,14.61
2022-08-24T03:04:23.053Z,14.60
2022-08-24T03:06:59.618Z,14.62
2022-08-24T03:09:29.472Z,14.65
2022-08-24T03:12:06.537Z,14.69
2022-08-24T03:14:38.367Z,14.62
2022-08-24T03:17:08.231Z,14.61
2022-08-24T03:19:37.769Z,14.55
2022-08-24T03:22:08.887Z,14.51
2022-08-24T03:24:37.298Z,14.54
2022-08-24T03:27:08.227Z,14.44
2022-08-24T03:29:36.988Z,14.42
2022-08-24T03:32:05.607Z,14.38
2022-08-24T03:34:36.814Z,14.31
2022-08-24T03:37:06.563Z,14.34
2022-08-24T03:39:37.391Z,14.36
2022-08-24T03:42:10.199Z,14.38
2022-08-24T03:44:41.857Z,14.31
2022-08-24T03:47:11.883Z,14.28
2022-08-24T03:49:41.450Z,14.24
2022-08-24T03:52:11.014Z,14.17
2022-08-24T03:54:39.711Z,14.14
2022-08-24T03:57:17.179Z,14.19
2022-08-24T03:59:46.382Z,14.16
2022-08-24T04:02:15.402Z,14.13
2022-08-24T04:04:45.068Z,14.10
2022-08-24T04:07:14.503Z,14.16
2022-08-24T04:09:45.245Z,14.11
2022-08-24T04:12:14.053Z,14.08
2022-08-24T04:14:45.449Z,14.08
2022-08-24T04:17:15.118Z,14.07
2022-08-24T04:19:57.848Z,14.06
2022-08-24T04:22:29.839Z,14.08
2022-08-24T04:24:58.926Z,14.04
2022-08-24T04:27:27.645Z,14.08
2022-08-24T04:29:58.082Z,14.06
2022-08-24T04:32:26.903Z,14.12
2022-08-24T04:34:59.435Z,14.07
2022-08-24T04:37:29.540Z,14.02
2022-08-24T04:39:58.532Z,14.04
2022-08-24T04:42:27.481Z,13.95
2022-08-24T04:44:58.602Z,13.96
2022-08-24T04:47:27.524Z,13.95
2022-08-24T04:49:55.985Z,14.01
2022-08-24T04:52:24.372Z,14.02
2022-08-24T04:54:53.026Z,13.93
2022-08-24T04:57:23.584Z,13.94
2022-08-24T04:59:59.795Z,13.95
2022-08-24T05:02:28.426Z,13.97
2022-08-24T05:04:58.854Z,13.96
2022-08-24T05:07:29.997Z,13.92
2022-08-24T05:09:59.848Z,13.98
2022-08-24T05:12:30.515Z,13.90
2022-08-24T05:15:12.229Z,13.96
2022-08-24T05:17:43.654Z,13.96
2022-08-24T05:20:20.877Z,13.99
2022-08-24T05:22:55.938Z,13.99
2022-08-24T05:25:30.138Z,13.93
2022-08-24T05:28:03.993Z,13.91
2022-08-24T05:30:42.684Z,13.90
2022-08-24T05:33:12.301Z,13.91
2022-08-24T05:35:43.898Z,13.96
2022-08-24T05:38:15.513Z,13.93
2022-08-24T05:40:50.776Z,13.97
2022-08-24T05:43:19.373Z,13.99
2022-08-24T05:45:53.051Z,14.01
2022-08-24T05:48:23.706Z,14.01
2022-08-24T05:50:58.097Z,13.99
2022-08-24T05:53:27.689Z,14.03
2022-08-24T05:56:14.161Z,14.05
2022-08-24T05:58:46.904Z,14.13
2022-08-24T06:01:21.256Z,14.15
2022-08-24T06:03:52.747Z,14.15
2022-08-24T06:06:23.612Z,14.22
2022-08-24T06:08:56.768Z,14.22
2022-08-24T06:11:30.501Z,14.24
2022-08-24T06:14:01.805Z,14.24
2022-08-24T06:16:32.131Z,14.20
2022-08-24T06:19:01.836Z,14.29
2022-08-24T06:21:33.452Z,14.21
2022-08-24T06:24:09.360Z,14.24
2022-08-24T06:26:55.555Z,14.24
2022-08-24T06:29:25.020Z,14.34
2022-08-24T06:31:56.017Z,14.35
2022-08-24T06:34:26.350Z,14.39
2022-08-24T06:36:55.856Z,14.37
2022-08-24T06:39:25.647Z,14.39
2022-08-24T06:41:54.331Z,14.48
2022-08-24T06:44:23.299Z,14.55
2022-08-24T06:46:57.952Z,14.60
2022-08-24T06:49:28.359Z,14.65
2022-08-24T06:51:57.256Z,14.59
2022-08-24T06:54:27.880Z,14.63
2022-08-24T06:56:58.817Z,14.68
2022-08-24T06:59:28.534Z,14.70
2022-08-24T07:02:06.529Z,14.74
2022-08-24T07:04:36.153Z,14.77
2022-08-24T07:07:04.867Z,14.87
2022-08-24T07:09:55.646Z,14.94
2022-08-24T07:12:48.576Z,14.92
2022-08-24T07:15:21.152Z,14.93
2022-08-24T07:17:51.640Z,14.90
2022-08-24T07:20:22.040Z,14.90
2022-08-24T07:23:02.666Z,14.92
2022-08-24T07:25:32.375Z,14.99
2022-08-24T07:28:07.981Z,15.02
2022-08-24T07:30:40.581Z,15.06
2022-08-24T07:33:11.507Z,15.15
2022-08-24T07:35:42.879Z,15.17
2022-08-24T07:38:18.420Z,15.34
2022-08-24T07:41:14.388Z,15.54
2022-08-24T07:43:41.781Z,15.46
2022-08-24T07:46:12.109Z,15.61
2022-08-24T07:48:43.740Z,15.61
2022-08-24T07:51:17.723Z,15.66
2022-08-24T07:53:54.621Z,15.72
2022-08-24T07:56:28.727Z,15.82
2022-08-24T07:58:57.180Z,15.85
2022-08-24T08:01:25.815Z,15.81
2022-08-24T08:04:03.254Z,15.81
2022-08-24T08:06:38.340Z,15.74
2022-08-24T08:09:07.809Z,15.82
2022-08-24T08:11:36.386Z,15.83
2022-08-24T08:14:04.695Z,15.93
2022-08-24T08:16:38.829Z,15.94
2022-08-24T08:19:11.404Z,15.85
2022-08-24T08:22:02.908Z,15.89
2022-08-24T08:24:33.965Z,16.08
2022-08-24T08:27:03.366Z,16.11
2022-08-24T08:29:34.683Z,16.14
2022-08-24T08:32:05.780Z,15.99
2022-08-24T08:34:36.094Z,15.98
2022-08-24T08:37:04.941Z,16.02
2022-08-24T08:39:33.738Z,16.02
2022-08-24T08:42:23.276Z,15.96
2022-08-24T08:45:06.908Z,16.07
2022-08-24T08:48:12.211Z,16.21
2022-08-24T08:51:06.741Z,16.34
2022-08-24T08:54:11.991Z,16.28
2022-08-24T08:56:54.026Z,16.21
2022-08-24T08:59:44.355Z,16.22
2022-08-24T09:02:31.233Z,16.27
2022-08-24T09:05:28.639Z,16.32
2022-08-24T09:08:09.442Z,16.41
2022-08-24T09:10:58.101Z,16.32
2022-08-24T09:13:46.185Z,16.37
2022-08-24T09:16:33.991Z,16.43
2022-08-24T09:19:25.977Z,16.63
2022-08-24T09:22:11.558Z,16.67
2022-08-24T09:25:05.296Z,16.64
2022-08-24T09:27:44.438Z,16.67
2022-08-24T09:30:17.371Z,16.75
2022-08-24T09:33:01.074Z,16.78
2022-08-24T09:35:49.742Z,16.85
2022-08-24T09:38:25.771Z,16.78
2022-08-24T09:41:21.483Z,16.87
2022-08-24T09:44:28.070Z,17.11
2022-08-24T09:47:25.160Z,17.36
2022-08-24T09:50:34.777Z,17.42
2022-08-24T09:53:39.698Z,17.64
2022-08-24T09:56:29.538Z,17.63
2022-08-24T09:59:21.948Z,17.57
2022-08-24T10:02:09.868Z,17.38
2022-08-24T10:04:47.316Z,17.40
2022-08-24T10:07:25.841Z,17.22
2022-08-24T10:10:17.847Z,17.19
2022-08-24T10:13:04.894Z,17.33
2022-08-24T10:15:40.075Z,17.17
2022-08-24T10:18:42.650Z,17.17
2022-08-24T10:21:35.607Z,17.65
2022-08-24T10:24:20.707Z,17.99
2022-08-24T10:27:10.064Z,18.28
2022-08-24T10:30:02.229Z,18.54
2022-08-24T10:32:47.896Z,18.52
2022-08-24T10:35:21.943Z,18.43
2022-08-24T10:38:41.201Z,18.18
2022-08-24T10:41:53.499Z,18.42
2022-08-24T10:44:41.594Z,18.29
2022-08-24T10:47:22.950Z,18.23
2022-08-24T10:50:21.778Z,18.19
2022-08-24T10:53:23.059Z,18.32
2022-08-24T10:56:06.024Z,18.49
2022-08-24T10:58:56.883Z,18.36
2022-08-24T11:01:29.624Z,18.36
2022-08-24T11:04:04.577Z,18.22
2022-08-24T11:06:36.696Z,18.10
2022-08-24T11:09:10.843Z,18.19
2022-08-24T11:11:42.808Z,18.19
2022-08-24T11:14:24.451Z,18.03
2022-08-24T11:16:57.701Z,18.22
2022-08-24T11:19:37.460Z,18.09
2022-08-24T11:22:23.176Z,18.10
2022-08-24T11:24:56.072Z,18.11
2022-08-24T11:27:32.164Z,18.09
2022-08-24T11:30:25.464Z,18.24
2022-08-24T11:32:56.875Z,18.65
2022-08-24T11:35:29.500Z,18.68
2022-08-24T11:38:10.335Z,18.64
2022-08-24T11:40:43.947Z,18.54
2022-08-24T11:43:23.910Z,18.60
2022-08-24T11:46:10.022Z,18.69
2022-08-24T11:48:48.470Z,18.74
2022-08-24T11:51:33.753Z,18.73
2022-08-24T11:54:10.201Z,18.61
2022-08-24T11:56:45.699Z,18.71
2022-08-24T11:59:21.687Z,18.84
2022-08-24T12:01:55.423Z,18.64
2022-08-24T12:04:44.267Z,18.61
2022-08-24T12:07:28.334Z,18.86
2022-08-24T12:10:14.977Z,19.02
2022-08-24T12:12:51.503Z,19.13
2022-08-24T12:15:25.846Z,19.43
2022-08-24T12:18:03.154Z,19.37
2022-08-24T12:20:36.122Z,19.37
2022-08-24T12:23:13.483Z,19.83
2022-08-24T12:26:00.908Z,19.84
2022-08-24T12:28:34.066Z,19.51
2022-08-24T12:31:09.470Z,19.65
2022-08-24T12:33:41.743Z,19.79
2022-08-24T12:36:19.730Z,19.88
2022-08-24T12:38:53.938Z,20.01
2022-08-24T12:41:29.706Z,20.19
2022-08-24T12:44:05.356Z,20.67
2022-08-24T12:46:44.933Z,20.71
2022-08-24T12:49:20.454Z,20.83
2022-08-24T12:52:13.537Z,20.87
2022-08-24T12:55:07.622Z,20.48
2022-08-24T12:57:53.946Z,20.68
2022-08-24T13:00:27.813Z,20.69
2022-08-24T13:03:00.785Z,20.97
2022-08-24T13:05:41.668Z,20.48
2022-08-24T13:08:17.029Z,20.35
2022-08-24T13:10:54.769Z,20.19
2022-08-24T13:13:39.639Z,20.33
2022-08-24T13:16:11.427Z,20.13
2022-08-24T13:18:53.744Z,19.89
2022-08-24T13:21:57.630Z,19.78
2022-08-24T13:25:00.571Z,19.84
2022-08-24T13:27:52.731Z,19.64
2022-08-24T13:30:31.814Z,19.62
2022-08-24T13:33:06.712Z,19.91
2022-08-24T13:35:53.907Z,20.01
2022-08-24T13:38:42.660Z,19.75
2022-08-24T13:41:23.614Z,19.80
2022-08-24T13:44:03.055Z,19.98
2022-08-24T13:46:47.806Z,20.15
2022-08-24T13:49:39.892Z,20.21
2022-08-24T13:52:26.249Z,20.08
2022-08-24T13:55:13.203Z,19.88
2022-08-24T13:57:46.300Z,19.80
2022-08-24T14:00:42.877Z,19.83
2022-08-24T14:03:27.951Z,19.51
2022-08-24T14:06:05.258Z,19.44
2022-08-24T14:08:47.503Z,19.58
2022-08-24T14:11:23.682Z,19.39
2022-08-24T14:14:07.292Z,19.39
2022-08-24T14:17:19.626Z,19.37
2022-08-24T14:19:59.803Z,19.22
2022-08-24T14:22:35.520Z,19.19
2022-08-24T14:25:17.630Z,19.37
2022-08-24T14:27:48.361Z,19.09
2022-08-24T14:30:46.929Z,19.08
2022-08-24T14:33:33.022Z,19.19
2022-08-24T14:36:16.219Z,19.30
2022-08-24T14:39:04.263Z,19.33
2022-08-24T14:41:48.125Z,19.36
2022-08-24T14:44:27.067Z,19.44
2022-08-24T14:47:16.014Z,19.52
2022-08-24T14:50:03.571Z,19.48
2022-08-24T14:52:52.196Z,19.40
2022-08-24T14:55:32.180Z,19.39
2022-08-24T14:58:14.190Z,19.47
2022-08-24T15:01:05.172Z,19.37
2022-08-24T15:04:02.937Z,19.49
2022-08-24T15:06:47.540Z,19.33
2022-08-24T15:09:23.721Z,19.50
2022-08-24T15:11:58.287Z,19.34
2022-08-24T15:14:37.643Z,19.25
2022-08-24T15:17:11.202Z,19.40
2022-08-24T15:19:51.309Z,19.49
2022-08-24T15:22:30.919Z,19.58
2022-08-24T15:25:06.286Z,19.70
2022-08-24T15:27:44.380Z,19.64
2022-08-24T15:30:22.957Z,19.87
2022-08-24T15:32:55.748Z,20.06
2022-08-24T15:35:29.762Z,20.28
2022-08-24T15:38:23.830Z,21.11
2022-08-24T15:41:04.485Z,21.92
2022-08-24T15:43:33.813Z,22.08
2022-08-24T15:46:02.521Z,22.25
2022-08-24T15:48:32.453Z,21.62
2022-08-24T15:51:02.074Z,22.53
2022-08-24T15:53:35.814Z,25.42
2022-08-24T15:56:36.303Z,25.60
2022-08-24T15:59:11.839Z,26.03
2022-08-24T16:01:58.784Z,26.72
2022-08-24T16:04:46.753Z,28.19
2022-08-24T16:07:32.845Z,27.83
2022-08-24T16:10:11.155Z,28.43
2022-08-24T16:12:41.893Z,27.94
2022-08-24T16:15:17.138Z,25.90
2022-08-24T16:17:51.546Z,27.03
2022-08-24T16:20:33.916Z,25.79
2022-08-24T16:23:08.266Z,24.89
2022-08-24T16:25:43.218Z,24.32
2022-08-24T16:28:33.950Z,24.07
2022-08-24T16:31:07.003Z,23.55
2022-08-24T16:33:43.991Z,23.48
2022-08-24T16:36:15.820Z,25.02
2022-08-24T16:38:49.313Z,24.88
2022-08-24T16:41:21.955Z,26.23
2022-08-24T16:43:51.337Z,26.81
2022-08-24T16:46:22.550Z,26.25
2022-08-24T16:48:54.265Z,26.85
2022-08-24T16:51:24.873Z,27.74
2022-08-24T16:53:55.377Z,26.41
2022-08-24T16:56:40.891Z,26.76
2022-08-24T16:59:18.198Z,25.57
2022-08-24T17:01:59.304Z,24.97
2022-08-24T17:04:28.936Z,25.71
2022-08-24T17:07:09.252Z,25.57
2022-08-24T17:09:41.007Z,25.48
2022-08-24T17:12:17.635Z,24.38
2022-08-24T17:15:11.785Z,24.57
2022-08-24T17:17:40.931Z,25.61
2022-08-24T17:20:11.760Z,24.87
2022-08-24T17:22:40.586Z,23.22
2022-08-24T17:25:09.713Z,22.13
2022-08-24T17:28:08.959Z,21.72
2022-08-24T17:30:41.576Z,22.76
2022-08-24T17:33:10.673Z,23.07
2022-08-24T17:35:40.825Z,23.16
2022-08-24T17:38:13.723Z,22.70
2022-08-24T17:40:44.851Z,22.22
2022-08-24T17:43:15.121Z,22.42
2022-08-24T17:45:44.877Z,23.13
2022-08-24T17:48:19.587Z,23.68
2022-08-24T17:50:48.030Z,23.21
2022-08-24T17:53:16.935Z,22.70
2022-08-24T17:55:45.572Z,22.58
2022-08-24T17:58:17.404Z,22.78
2022-08-24T18:00:46.290Z,21.63
2022-08-24T18:03:16.703Z,21.12
2022-08-24T18:05:45.511Z,20.73
2022-08-24T18:08:14.854Z,20.43
2022-08-24T18:10:43.546Z,20.28
2022-08-24T18:13:12.894Z,20.13
2022-08-24T18:15:42.774Z,20.21
2022-08-24T18:18:13.281Z,20.22
2022-08-24T18:20:42.874Z,20.15
2022-08-24T18:23:12.566Z,20.16
2022-08-24T18:25:48.016Z,20.01
2022-08-24T18:28:23.978Z,19.88
2022-08-24T18:30:54.345Z,19.79
2022-08-24T18:33:23.018Z,19.70
2022-08-24T18:35:51.930Z,19.61
2022-08-24T18:38:20.687Z,19.49
2022-08-24T18:40:52.565Z,19.42
2022-08-24T18:43:23.896Z,19.37
2022-08-24T18:45:56.811Z,19.34
2022-08-24T18:48:25.625Z,19.31
2022-08-24T18:50:55.161Z,19.26
2022-08-24T18:53:27.525Z,19.27
2022-08-24T18:55:59.657Z,19.29
2022-08-24T18:58:32.374Z,19.28
2022-08-24T19:01:02.444Z,19.21
2022-08-24T19:03:33.063Z,19.13
2022-08-24T19:06:01.779Z,19.12
2022-08-24T19:08:45.363Z,19.04
2022-08-24T19:11:15.026Z,19.07
2022-08-24T19:13:46.301Z,18.98
2022-08-24T19:16:21.302Z,18.89
2022-08-24T19:19:03.146Z,18.86
2022-08-24T19:21:36.760Z,18.81
2022-08-24T19:24:08.311Z,18.82
2022-08-24T19:26:38.373Z,18.72
2022-08-24T19:29:10.292Z,18.59
2022-08-24T19:31:52.148Z,18.51
2022-08-24T19:34:21.307Z,18.43
2022-08-24T19:36:58.952Z,18.34
2022-08-24T19:39:40.363Z,18.25
2022-08-24T19:42:12.012Z,18.21
2022-08-24T19:44:59.416Z,18.24
2022-08-24T19:47:29.468Z,18.24
2022-08-24T19:49:59.144Z,18.19
2022-08-24T19:52:30.734Z,18.12
2022-08-24T19:55:00.624Z,18.04
2022-08-24T19:57:42.090Z,17.93
2022-08-24T20:00:28.646Z,17.89
2022-08-24T20:03:01.878Z,17.89
2022-08-24T20:05:32.288Z,17.87
2022-08-24T20:08:03.838Z,17.74
2022-08-24T20:10:35.232Z,17.66
2022-08-24T20:13:03.868Z,17.69
2022-08-24T20:15:34.589Z,17.65
2022-08-24T20:18:04.727Z,17.63
2022-08-24T20:20:34.461Z,17.67
2022-08-24T20:23:13.012Z,17.56
2022-08-24T20:25:42.066Z,17.53
2022-08-24T20:28:28.914Z,17.53
2022-08-24T20:30:58.294Z,17.58
2022-08-24T20:33:29.152Z,17.62
2022-08-24T20:35:59.608Z,17.53
2022-08-24T20:38:31.880Z,17.52
2022-08-24T20:41:01.776Z,17.50
2022-08-24T20:43:31.150Z,17.36
2022-08-24T20:45:59.651Z,17.34
2022-08-24T20:48:33.541Z,17.35
2022-08-24T20:51:02.751Z,17.30
2022-08-24T20:53:31.182Z,17.23
2022-08-24T20:56:03.138Z,17.09
2022-08-24T20:58:31.910Z,17.09
2022-08-24T21:01:00.474Z,17.06
2022-08-24T21:03:30.603Z,17.09
2022-08-24T21:06:00.604Z,17.09
2022-08-24T21:08:28.987Z,17.08
2022-08-24T21:10:57.593Z,17.03
2022-08-24T21:13:26.669Z,16.93
2022-08-24T21:15:55.054Z,16.82
2022-08-24T21:18:23.545Z,16.74
2022-08-24T21:21:03.995Z,16.76
2022-08-24T21:23:36.361Z,16.63
2022-08-24T21:26:09.268Z,16.49
2022-08-24T21:28:38.900Z,16.49
2022-08-24T21:31:07.411Z,16.46
2022-08-24T21:33:53.203Z,16.48
2022-08-24T21:36:26.629Z,16.45
2022-08-24T21:38:58.052Z,16.36
2022-08-24T21:41:29.480Z,16.31
2022-08-24T21:44:00.982Z,16.16
2022-08-24T21:46:34.177Z,16.15
2022-08-24T21:49:04.089Z,16.16
2022-08-24T21:51:36.712Z,16.14
2022-08-24T21:54:06.227Z,16.14
2022-08-24T21:56:41.430Z,16.05
2022-08-24T21:59:10.593Z,15.86
2022-08-24T22:01:40.936Z,15.81
2022-08-24T22:04:09.444Z,15.81
2022-08-24T22:06:41.455Z,15.73
2022-08-24T22:09:10.311Z,15.69
2022-08-24T22:11:38.684Z,15.69
2022-08-24T22:14:07.533Z,15.61
2022-08-24T22:16:37.438Z,15.48
2022-08-24T22:19:06.471Z,15.44
2022-08-24T22:21:36.372Z,15.45
2022-08-24T22:24:06.781Z,15.32
2022-08-24T22:26:37.469Z,15.32
2022-08-24T22:29:10.455Z,15.29
2022-08-24T22:31:42.214Z,15.20
2022-08-24T22:34:17.269Z,15.28
2022-08-24T22:36:51.724Z,15.26
2022-08-24T22:39:27.202Z,15.23
2022-08-24T22:41:57.237Z,15.24
2022-08-24T22:44:48.980Z,15.14
2022-08-24T22:47:28.132Z,15.18
2022-08-24T22:50:10.841Z,15.09
2022-08-24T22:52:39.612Z,15.03
2022-08-24T22:55:19.009Z,15.06
2022-08-24T22:57:51.210Z,15.04
2022-08-24T23:00:23.125Z,15.07
2022-08-24T23:02:51.631Z,15.07
2022-08-24T23:05:20.542Z,15.05
2022-08-24T23:07:52.319Z,15.04
2022-08-24T23:10:23.110Z,15.09
2022-08-24T23:12:52.027Z,15.13
2022-08-24T23:15:20.527Z,15.09
2022-08-24T23:17:50.294Z,14.98
2022-08-24T23:20:23.959Z,15.01
2022-08-24T23:22:58.968Z,14.88
2022-08-24T23:25:28.832Z,14.80
2022-08-24T23:27:58.219Z,14.77
2022-08-24T23:30:27.651Z,14.73
2022-08-24T23:32:56.421Z,14.71
2022-08-24T23:35:25.231Z,14.70
2022-08-24T23:37:59.756Z,14.61
2022-08-24T23:40:31.361Z,14.55
2022-08-24T23:42:59.978Z,14.56
2022-08-24T23:45:30.489Z,14.53
2022-08-24T23:47:59.183Z,14.45
2022-08-24T23:50:28.096Z,14.43
2022-08-24T23:52:56.649Z,14.31
2022-08-24T23:55:28.517Z,14.14
2022-08-24T23:58:01.574Z,14.15
